createdAt,value
2023-02-12T00:00:27.400Z,59.50
2023-02-12T00:03:30.579Z,59.40
2023-02-12T00:06:33.920Z,59.20
2023-02-12T00:09:38.746Z,58.90
2023-02-12T00:12:41.882Z,59.10
2023-02-12T00:15:45.103Z,59.40
2023-02-12T00:18:48.961Z,59.60
2023-02-12T00:21:52.106Z,59.70
2023-02-12T00:24:56.871Z,60.00
2023-02-12T00:28:00.147Z,59.90
2023-02-12T00:31:07.258Z,60.00
2023-02-12T00:34:12.430Z,60.60
2023-02-12T00:37:16.108Z,60.70
2023-02-12T00:40:20.881Z,60.80
2023-02-12T00:43:24.093Z,61.40
2023-02-12T00:46:27.285Z,61.50
2023-02-12T00:49:34.129Z,61.60
2023-02-12T00:52:37.334Z,61.80
2023-02-12T00:55:42.307Z,62.00
2023-02-12T00:58:45.658Z,62.30
2023-02-12T01:01:48.850Z,62.20
2023-02-12T01:04:52.194Z,63.40
2023-02-12T01:07:56.330Z,62.60
2023-02-12T01:11:03.407Z,62.70
2023-02-12T01:14:06.869Z,62.60
2023-02-12T01:17:10.219Z,62.50
2023-02-12T01:20:17.439Z,62.70
2023-02-12T01:23:20.589Z,62.90
2023-02-12T01:26:25.480Z,62.80
2023-02-12T01:29:28.659Z,63.00
2023-02-12T01:32:31.830Z,63.40
2023-02-12T01:35:35.007Z,64.40
2023-02-12T01:38:38.304Z,64.10
2023-02-12T01:41:44.648Z,64.40
2023-02-12T01:45:33.390Z,64.40
2023-02-12T01:48:40.523Z,64.40
2023-02-12T01:51:45.406Z,64.60
2023-02-12T01:54:49.755Z,64.90
2023-02-12T01:57:54.381Z,65.20
2023-02-12T02:00:57.803Z,65.50
2023-02-12T02:04:03.550Z,65.80
2023-02-12T02:07:09.282Z,65.90
2023-02-12T02:10:12.624Z,65.80
2023-02-12T02:13:34.958Z,65.90
2023-02-12T02:16:40.352Z,66.50
2023-02-12T02:20:02.983Z,67.50
2023-02-12T02:23:47.253Z,67.80
2023-02-12T02:27:17.279Z,68.00
2023-02-12T02:30:36.267Z,68.50
2023-02-12T02:33:43.094Z,68.50
2023-02-12T02:37:00.456Z,68.50
2023-02-12T02:40:10.904Z,68.60
2023-02-12T02:43:19.487Z,68.60
2023-02-12T02:46:29.001Z,68.70
2023-02-12T02:49:40.294Z,69.00
2023-02-12T02:52:50.386Z,68.90
2023-02-12T02:55:56.445Z,69.60
2023-02-12T02:59:03.731Z,69.80
2023-02-12T03:02:13.848Z,69.80
2023-02-12T03:05:21.574Z,69.80
2023-02-12T03:08:28.557Z,70.10
2023-02-12T03:11:34.926Z,70.00
2023-02-12T03:14:42.026Z,70.50
2023-02-12T03:17:49.288Z,70.50
2023-02-12T03:20:56.611Z,70.70
2023-02-12T03:24:05.554Z,70.20
2023-02-12T03:27:11.638Z,70.10
2023-02-12T03:30:15.889Z,70.80
2023-02-12T03:33:30.610Z,70.00
2023-02-12T03:36:41.081Z,70.10
2023-02-12T03:39:50.815Z,70.00
2023-02-12T03:43:01.309Z,70.10
2023-02-12T03:46:15.306Z,70.10
2023-02-12T03:49:25.336Z,70.20
2023-02-12T03:52:30.142Z,69.80
2023-02-12T03:55:35.556Z,69.80
2023-02-12T03:58:41.112Z,69.90
2023-02-12T04:01:44.621Z,71.20
2023-02-12T04:04:49.756Z,70.70
2023-02-12T04:07:54.828Z,70.70
2023-02-12T04:11:07.595Z,71.30
2023-02-12T04:14:19.197Z,71.80
2023-02-12T04:17:30.911Z,72.30
2023-02-12T04:20:43.356Z,72.60
2023-02-12T04:23:51.530Z,72.90
2023-02-12T04:27:00.193Z,73.80
2023-02-12T04:30:10.322Z,74.10
2023-02-12T04:33:19.137Z,74.40
2023-02-12T04:36:27.679Z,74.80
2023-02-12T04:39:35.089Z,75.00
2023-02-12T04:42:43.718Z,75.60
2023-02-12T04:45:46.854Z,75.80
2023-02-12T04:48:54.860Z,75.80
2023-02-12T04:51:59.461Z,76.20
2023-02-12T04:55:02.641Z,76.40
2023-02-12T04:58:06.012Z,76.30
2023-02-12T05:01:10.263Z,76.50
2023-02-12T05:04:15.538Z,76.50
2023-02-12T05:07:20.138Z,76.40
2023-02-12T05:10:23.297Z,76.30
2023-02-12T05:13:26.513Z,75.80
2023-02-12T05:16:29.754Z,76.30
2023-02-12T05:19:32.984Z,76.10
2023-02-12T05:22:37.534Z,76.20
2023-02-12T05:25:40.667Z,76.20
2023-02-12T05:28:43.829Z,76.00
2023-02-12T05:31:47.411Z,76.10
2023-02-12T05:34:50.766Z,76.10
2023-02-12T05:37:55.273Z,75.80
2023-02-12T05:41:03.353Z,75.70
2023-02-12T05:44:07.711Z,75.60
2023-02-12T05:47:10.910Z,75.80
2023-02-12T05:50:14.085Z,75.70
2023-02-12T05:53:18.650Z,75.80
2023-02-12T05:56:24.106Z,75.60
2023-02-12T05:59:27.284Z,75.50
2023-02-12T06:02:30.495Z,75.60
2023-02-12T06:05:33.649Z,75.90
2023-02-12T06:08:38.485Z,75.90
2023-02-12T06:11:42.215Z,75.50
2023-02-12T06:14:45.392Z,75.50
2023-02-12T06:17:48.547Z,75.50
2023-02-12T06:20:51.751Z,75.20
2023-02-12T06:23:56.324Z,74.50
2023-02-12T06:26:59.457Z,74.50
2023-02-12T06:30:02.606Z,74.40
2023-02-12T06:33:05.819Z,74.40
2023-02-12T06:36:09.130Z,74.40
2023-02-12T06:39:14.799Z,74.20
2023-02-12T06:42:19.072Z,74.10
2023-02-12T06:45:22.222Z,74.10
2023-02-12T06:48:25.374Z,74.00
2023-02-12T06:51:30.197Z,73.90
2023-02-12T06:54:34.758Z,74.20
2023-02-12T06:57:37.912Z,73.80
2023-02-12T07:00:41.110Z,73.80
2023-02-12T07:03:45.749Z,73.80
2023-02-12T07:06:48.912Z,73.70
2023-02-12T07:09:53.402Z,74.00
2023-02-12T07:12:56.535Z,73.90
2023-02-12T07:15:59.702Z,74.30
2023-02-12T07:19:02.914Z,74.70
2023-02-12T07:22:06.220Z,75.00
2023-02-12T07:25:10.820Z,75.50
2023-02-12T07:28:14.005Z,75.50
2023-02-12T07:31:19.980Z,75.60
2023-02-12T07:34:23.263Z,75.60
2023-02-12T07:37:26.566Z,75.50
2023-02-12T07:40:31.073Z,74.70
2023-02-12T07:43:34.324Z,72.90
2023-02-12T07:46:39.529Z,72.10
2023-02-12T07:49:42.744Z,71.90
2023-02-12T07:52:46.042Z,71.40
2023-02-12T07:55:50.569Z,72.00
2023-02-12T07:58:55.101Z,71.80
2023-02-12T08:01:58.664Z,72.00
2023-02-12T08:05:01.916Z,71.60
2023-02-12T08:08:05.320Z,71.60
2023-02-12T08:11:11.945Z,71.80
2023-02-12T08:14:16.767Z,71.00
2023-02-12T08:17:19.943Z,70.50
2023-02-12T08:20:23.080Z,69.80
2023-02-12T08:23:26.246Z,68.60
2023-02-12T08:26:32.416Z,67.40
2023-02-12T08:29:35.794Z,66.10
2023-02-12T08:32:38.978Z,64.80
2023-02-12T08:35:42.173Z,62.90
2023-02-12T08:38:46.925Z,61.60
2023-02-12T08:41:52.049Z,60.50
2023-02-12T08:44:55.367Z,60.50
2023-02-12T08:47:58.515Z,60.50
2023-02-12T08:51:09.746Z,60.30
2023-02-12T08:54:18.396Z,60.70
2023-02-12T08:57:22.908Z,60.30
2023-02-12T09:00:26.244Z,60.80
2023-02-12T09:03:29.888Z,61.10
2023-02-12T09:06:36.170Z,59.80
2023-02-12T09:09:39.322Z,58.90
2023-02-12T09:12:43.837Z,56.00
2023-02-12T09:15:47.181Z,54.50
2023-02-12T09:18:50.374Z,53.90
2023-02-12T09:21:56.059Z,53.80
2023-02-12T09:24:59.718Z,52.10
2023-02-12T09:28:04.530Z,44.20
2023-02-12T09:31:08.582Z,36.00
2023-02-12T09:34:11.975Z,29.20
2023-02-12T09:37:15.470Z,25.70
2023-02-12T09:40:20.980Z,26.10
2023-02-12T09:43:33.721Z,27.80
2023-02-12T09:46:43.276Z,30.00
2023-02-12T09:50:13.707Z,32.60
2023-02-12T09:53:19.374Z,34.50
2023-02-12T09:56:25.980Z,34.60
2023-02-12T09:59:37.756Z,30.40
2023-02-12T10:02:41.879Z,26.80
2023-02-12T10:05:49.298Z,23.70
2023-02-12T10:09:06.076Z,22.50
2023-02-12T10:12:17.159Z,18.70
2023-02-12T10:15:35.394Z,15.50
2023-02-12T10:18:58.195Z,14.00
2023-02-12T10:22:11.868Z,12.50
2023-02-12T10:25:25.423Z,11.70
2023-02-12T10:28:38.806Z,11.60
2023-02-12T10:31:47.192Z,11.20
2023-02-12T10:34:52.488Z,11.20
2023-02-12T10:38:00.621Z,10.50
2023-02-12T10:41:03.922Z,10.50
2023-02-12T10:44:08.704Z,10.30
2023-02-12T10:47:19.783Z,10.30
2023-02-12T10:50:36.003Z,9.40
2023-02-12T10:53:41.403Z,9.80
2023-02-12T10:56:44.943Z,9.70
2023-02-12T10:59:49.941Z,9.60
2023-02-12T11:03:07.417Z,9.20
2023-02-12T11:06:17.106Z,9.20
2023-02-12T11:09:30.352Z,9.40
2023-02-12T11:12:37.107Z,9.70
2023-02-12T11:15:50.015Z,10.40
2023-02-12T11:19:02.296Z,11.20
2023-02-12T11:22:08.489Z,12.50
2023-02-12T11:25:17.592Z,12.90
2023-02-12T11:28:21.740Z,11.90
2023-02-12T11:31:29.833Z,11.10
2023-02-12T11:34:36.456Z,11.40
2023-02-12T11:37:44.161Z,10.80
2023-02-12T11:40:49.236Z,10.70
2023-02-12T11:43:55.330Z,11.30
2023-02-12T11:47:03.204Z,11.70
2023-02-12T11:50:19.546Z,11.80
2023-02-12T11:53:27.417Z,13.10
2023-02-12T11:56:43.306Z,14.30
2023-02-12T11:59:48.260Z,13.50
2023-02-12T12:02:58.881Z,11.80
2023-02-12T12:06:09.331Z,12.10
2023-02-12T12:09:19.032Z,12.90
2023-02-12T12:12:27.279Z,13.30
2023-02-12T12:15:52.543Z,13.70
2023-02-12T12:19:18.377Z,13.40
2023-02-12T12:22:45.961Z,14.20
2023-02-12T12:25:53.840Z,14.20
2023-02-12T12:29:06.762Z,13.00
2023-02-12T12:32:15.528Z,12.20
2023-02-12T12:35:23.310Z,11.70
2023-02-12T12:38:39.704Z,11.50
2023-02-12T12:42:08.881Z,11.50
2023-02-12T12:45:26.539Z,10.50
2023-02-12T12:48:45.590Z,11.10
2023-02-12T12:52:07.541Z,12.90
2023-02-12T12:55:33.563Z,12.60
2023-02-12T12:58:51.822Z,11.80
2023-02-12T13:02:18.558Z,12.50
2023-02-12T13:05:55.574Z,12.90
2023-02-12T13:09:17.774Z,15.20
2023-02-12T13:12:49.591Z,17.60
2023-02-12T13:15:59.505Z,19.60
2023-02-12T13:19:08.178Z,20.90
2023-02-12T13:22:18.508Z,22.10
2023-02-12T13:25:28.551Z,23.10
2023-02-12T13:28:39.249Z,24.20
2023-02-12T13:31:49.687Z,24.40
2023-02-12T13:34:55.961Z,21.20
2023-02-12T13:38:02.065Z,18.00
2023-02-12T13:41:10.296Z,16.40
2023-02-12T13:44:31.830Z,15.70
2023-02-12T13:47:48.235Z,16.50
2023-02-12T13:51:02.944Z,16.10
2023-02-12T13:54:16.674Z,16.60
2023-02-12T13:57:22.442Z,17.00
2023-02-12T14:01:00.394Z,18.30
2023-02-12T14:04:30.558Z,20.40
2023-02-12T14:07:45.292Z,22.20
2023-02-12T14:11:06.175Z,21.20
2023-02-12T14:14:10.656Z,19.60
2023-02-12T14:17:53.762Z,19.30
2023-02-12T14:21:44.575Z,19.70
2023-02-12T14:24:56.268Z,20.50
2023-02-12T14:28:09.007Z,21.50
2023-02-12T14:31:47.130Z,22.70
2023-02-12T14:34:52.781Z,24.00
2023-02-12T14:37:59.876Z,24.60
2023-02-12T14:41:37.897Z,25.50
2023-02-12T14:44:48.283Z,26.00
2023-02-12T14:47:53.778Z,26.80
2023-02-12T14:51:02.009Z,27.30
2023-02-12T14:54:15.899Z,27.80
2023-02-12T14:57:30.196Z,28.00
2023-02-12T15:00:38.758Z,28.60
2023-02-12T15:03:52.278Z,29.00
2023-02-12T15:07:08.622Z,29.30
2023-02-12T15:10:20.407Z,30.00
2023-02-12T15:13:31.275Z,30.30
2023-02-12T15:16:47.883Z,30.50
2023-02-12T15:19:57.842Z,30.70
2023-02-12T15:23:26.235Z,31.20
2023-02-12T15:26:36.528Z,31.20
2023-02-12T15:29:44.452Z,31.70
2023-02-12T15:32:49.679Z,32.20
2023-02-12T15:35:55.242Z,32.50
2023-02-12T15:39:05.069Z,32.70
2023-02-12T15:42:31.766Z,33.00
2023-02-12T15:45:39.302Z,33.50
2023-02-12T15:48:44.240Z,33.80
2023-02-12T15:51:48.153Z,34.20
2023-02-12T15:54:54.988Z,34.60
2023-02-12T15:58:02.482Z,34.80
2023-02-12T16:01:08.910Z,34.90
2023-02-12T16:04:14.078Z,35.10
2023-02-12T16:07:20.333Z,35.40
2023-02-12T16:10:27.846Z,35.70
2023-02-12T16:13:36.687Z,35.80
2023-02-12T16:16:46.478Z,36.00
2023-02-12T16:19:57.599Z,36.30
2023-02-12T16:23:08.107Z,36.50
2023-02-12T16:26:19.576Z,36.70
2023-02-12T16:29:24.383Z,36.90
2023-02-12T16:32:37.187Z,37.10
2023-02-12T16:35:42.092Z,37.40
2023-02-12T16:38:48.637Z,38.50
2023-02-12T16:41:58.916Z,38.40
2023-02-12T16:45:04.061Z,38.80
2023-02-12T16:48:26.195Z,39.20
2023-02-12T16:51:34.554Z,40.40
2023-02-12T16:54:38.359Z,40.90
2023-02-12T16:57:46.994Z,41.80
2023-02-12T17:00:51.918Z,42.40
2023-02-12T17:03:58.252Z,43.10
2023-02-12T17:07:05.362Z,43.80
2023-02-12T17:10:14.270Z,44.10
2023-02-12T17:13:22.624Z,44.50
2023-02-12T17:16:31.575Z,44.50
2023-02-12T17:19:37.145Z,45.00
2023-02-12T17:22:51.409Z,45.70
2023-02-12T17:25:58.442Z,46.10
2023-02-12T17:29:09.311Z,47.70
2023-02-12T17:32:17.192Z,48.00
2023-02-12T17:35:22.873Z,49.40
2023-02-12T17:38:29.054Z,49.80
2023-02-12T17:41:36.131Z,49.50
2023-02-12T17:44:44.786Z,50.20
2023-02-12T17:47:50.510Z,50.10
2023-02-12T17:50:58.526Z,50.20
2023-02-12T17:54:04.685Z,50.40
2023-02-12T17:57:16.069Z,50.30
2023-02-12T18:00:30.409Z,50.20
2023-02-12T18:03:35.848Z,50.50
2023-02-12T18:06:40.533Z,50.60
2023-02-12T18:09:45.160Z,51.20
2023-02-12T18:12:51.491Z,51.50
2023-02-12T18:15:57.619Z,51.80
2023-02-12T18:19:06.590Z,52.00
2023-02-12T18:22:12.233Z,52.20
2023-02-12T18:25:18.884Z,52.50
2023-02-12T18:28:23.932Z,53.00
2023-02-12T18:31:30.630Z,53.30
2023-02-12T18:34:38.314Z,53.50
2023-02-12T18:37:45.949Z,53.80
2023-02-12T18:40:50.907Z,54.00
2023-02-12T18:43:56.694Z,54.40
2023-02-12T18:47:07.891Z,54.80
2023-02-12T18:50:14.238Z,55.10
2023-02-12T18:53:20.354Z,55.40
2023-02-12T18:56:26.124Z,55.90
2023-02-12T18:59:31.338Z,56.10
2023-02-12T19:02:37.916Z,56.40
2023-02-12T19:05:43.854Z,56.80
2023-02-12T19:08:48.892Z,57.00
2023-02-12T19:11:56.611Z,57.30
2023-02-12T19:15:01.514Z,57.60
2023-02-12T19:18:08.827Z,57.80
2023-02-12T19:21:17.440Z,58.10
2023-02-12T19:24:22.410Z,58.50
2023-02-12T19:27:27.674Z,58.70
2023-02-12T19:30:32.545Z,59.00
2023-02-12T19:33:39.885Z,59.70
2023-02-12T19:36:46.550Z,60.20
2023-02-12T19:39:51.775Z,60.50
2023-02-12T19:43:00.528Z,61.40
2023-02-12T19:46:07.109Z,61.90
2023-02-12T19:49:19.839Z,62.70
2023-02-12T19:52:25.296Z,63.20
2023-02-12T19:55:30.702Z,63.80
2023-02-12T19:58:35.642Z,64.60
2023-02-12T20:01:40.825Z,65.10
2023-02-12T20:04:51.229Z,65.40
2023-02-12T20:08:03.600Z,66.10
2023-02-12T20:11:10.929Z,66.70
2023-02-12T20:14:20.222Z,67.40
2023-02-12T20:17:24.336Z,68.00
2023-02-12T20:20:30.045Z,68.60
2023-02-12T20:23:36.090Z,69.10
2023-02-12T20:26:42.945Z,69.90
2023-02-12T20:29:49.476Z,70.90
2023-02-12T20:32:55.892Z,72.00
2023-02-12T20:36:02.950Z,72.20
2023-02-12T20:39:13.096Z,73.10
2023-02-12T20:42:19.084Z,73.50
2023-02-12T20:45:23.901Z,74.30
2023-02-12T20:48:28.837Z,74.90
2023-02-12T20:51:37.637Z,74.70
2023-02-12T20:54:42.306Z,75.40
2023-02-12T20:57:47.258Z,76.20
2023-02-12T21:00:51.472Z,76.20
2023-02-12T21:03:56.347Z,76.70
2023-02-12T21:07:03.088Z,77.00
2023-02-12T21:10:09.883Z,77.80
2023-02-12T21:13:14.691Z,78.40
2023-02-12T21:16:24.371Z,78.70
2023-02-12T21:19:29.175Z,79.30
2023-02-12T21:22:35.248Z,79.50
2023-02-12T21:25:40.281Z,80.20
2023-02-12T21:28:45.312Z,81.00
2023-02-12T21:31:51.039Z,81.10
2023-02-12T21:34:56.106Z,81.20
2023-02-12T21:38:01.572Z,82.50
2023-02-12T21:41:09.527Z,83.30
2023-02-12T21:44:16.391Z,84.00
2023-02-12T21:47:20.158Z,84.30
2023-02-12T21:50:24.017Z,84.50
2023-02-12T21:53:29.056Z,85.10
2023-02-12T21:56:33.645Z,85.30
2023-02-12T21:59:37.321Z,85.90
2023-02-12T22:02:40.803Z,86.00
2023-02-12T22:05:44.136Z,86.60
2023-02-12T22:08:49.268Z,87.20
2023-02-12T22:11:53.195Z,88.00
2023-02-12T22:14:56.307Z,88.60
2023-02-12T22:17:59.488Z,88.80
2023-02-12T22:21:03.101Z,89.10
2023-02-12T22:24:09.907Z,89.10
2023-02-12T22:27:13.054Z,89.60
2023-02-12T22:30:16.732Z,89.90
2023-02-12T22:33:19.868Z,90.10
2023-02-12T22:36:25.062Z,90.20
2023-02-12T22:39:29.881Z,90.40
2023-02-12T22:42:33.082Z,90.50
2023-02-12T22:45:36.259Z,90.70
2023-02-12T22:48:39.983Z,91.00
2023-02-12T22:51:43.422Z,91.10
2023-02-12T22:54:47.912Z,91.20
2023-02-12T22:57:52.010Z,91.30
2023-02-12T23:00:55.489Z,91.40
2023-02-12T23:03:59.696Z,91.50
2023-02-12T23:07:02.913Z,91.70
2023-02-12T23:10:08.788Z,91.70
2023-02-12T23:13:21.330Z,92.00
2023-02-12T23:16:31.241Z,92.20
2023-02-12T23:19:34.435Z,92.20
2023-02-12T23:22:37.634Z,92.40
2023-02-12T23:25:42.984Z,92.50
2023-02-12T23:28:46.166Z,92.50
2023-02-12T23:31:49.445Z,92.80
2023-02-12T23:34:52.611Z,93.00
2023-02-12T23:37:55.788Z,93.20
2023-02-12T23:41:00.301Z,93.20
2023-02-12T23:44:03.774Z,93.10
2023-02-12T23:47:07.212Z,93.20
2023-02-12T23:50:11.079Z,93.40
2023-02-12T23:53:14.633Z,93.70
2023-02-12T23:56:19.168Z,93.80
2023-02-12T23:59:22.466Z,93.90
